Terminal Aerodrome Forecast
Issued by NWS Tampa Bay Area, FL

Home | Current Version | Previous Version | Text Only | Print | Product List | Glossary Off
Versions: 1 2 3 4 5 6 7 8 9 10 11 12 13 14 15 16 17 18 19 20 21 22 23 24 25 26

454
FTUS42 KTBW 262320
TAFTPA
TAF
KTPA 262320Z 2700/2724 07009KT P6SM SCT060
     FM270300 07006KT P6SM FEW250
     FM271500 08007KT P6SM SCT040=

USA.gov is the U.S. government's official web portal to all federal, state and local government web resources and services.